Westhaven, California
Current Conditions -  °F | °C
As of 6:53 AM on Friday 26 Dec 2014 (Local Time) from KACV Reporting Station
Clear Clear  
Wind Chill: 29°   Ceiling: Unl
Heat Index: 33°   Visibility: 10mi
Dew Point: 31°   Wind: 5mph
Humidity: 92%   Direction: 90°E
Pressure: 30.29"   Gusts: NA
Location:  41.1412°N, 124.024°W
Report Text: KACV 261453Z AUTO 09004KT 10SM CLR 01/M01 A3029 RMK AO2 SLP266 T00061006 53005
Loading
Personal Weather Stations






























Interactive Weather Map New forecast layout! Learn more

10-Day Weather Forecast

Advertisements
Track Severe Weather on mobile